LRIA - IASI

Compiled: 11:34:10 on 21/04/2018

Latest METAR/SPECI Reports

METAR LRIA 211130Z 25006KT 230V300 CAVOK 22/M00 Q1016=

Previous reports

METAR LRIA 211100Z 28007KT 250V310 CAVOK 22/01 Q1017=
METAR LRIA 211030Z 22006KT 170V260 CAVOK 21/03 Q1017=
METAR LRIA 211000Z 26007KT 200V290 CAVOK 21/03 Q1018=
METAR LRIA 210930Z 28008KT 240V310 CAVOK 20/03 Q1018=

Latest TAF report

TAF LRIA 211100Z 2112/2121 25007KT CAVOK=

Valid WARNINGS

No valid warnings for LRIA